sensor_id;sensor_type;location;lat;lon;timestamp;P1;durP1;ratioP1;P2;durP2;ratioP2
13981;SDS011;7065;50.880;5.502;2023-02-11T00:01:27;39.55;;;26.15;;
13981;SDS011;7065;50.880;5.502;2023-02-11T00:03:56;38.35;;;25.42;;
13981;SDS011;7065;50.880;5.502;2023-02-11T00:06:23;34.97;;;25.20;;
13981;SDS011;7065;50.880;5.502;2023-02-11T00:08:49;33.03;;;23.60;;
13981;SDS011;7065;50.880;5.502;2023-02-11T00:11:16;34.45;;;25.92;;
13981;SDS011;7065;50.880;5.502;2023-02-11T00:13:43;38.38;;;24.90;;
13981;SDS011;7065;50.880;5.502;2023-02-11T00:16:11;33.22;;;24.08;;
13981;SDS011;7065;50.880;5.502;2023-02-11T00:18:38;34.08;;;24.83;;
13981;SDS011;7065;50.880;5.502;2023-02-11T00:21:05;40.95;;;25.33;;
13981;SDS011;7065;50.880;5.502;2023-02-11T00:23:33;36.05;;;24.83;;
13981;SDS011;7065;50.880;5.502;2023-02-11T00:25:59;37.35;;;25.05;;
13981;SDS011;7065;50.880;5.502;2023-02-11T00:28:25;32.17;;;22.67;;
13981;SDS011;7065;50.880;5.502;2023-02-11T00:30:55;31.83;;;22.70;;
13981;SDS011;7065;50.880;5.502;2023-02-11T00:33:22;37.35;;;22.95;;
13981;SDS011;7065;50.880;5.502;2023-02-11T00:35:47;35.55;;;24.08;;
13981;SDS011;7065;50.880;5.502;2023-02-11T00:38:13;33.50;;;23.80;;
13981;SDS011;7065;50.880;5.502;2023-02-11T00:40:39;32.75;;;23.17;;
13981;SDS011;7065;50.880;5.502;2023-02-11T00:43:05;33.60;;;23.50;;
13981;SDS011;7065;50.880;5.502;2023-02-11T00:45:30;35.40;;;23.67;;
13981;SDS011;7065;50.880;5.502;2023-02-11T00:47:56;35.88;;;24.38;;
13981;SDS011;7065;50.880;5.502;2023-02-11T00:50:22;41.63;;;25.60;;
13981;SDS011;7065;50.880;5.502;2023-02-11T00:52:48;33.08;;;23.83;;
13981;SDS011;7065;50.880;5.502;2023-02-11T00:55:14;37.45;;;26.33;;
13981;SDS011;7065;50.880;5.502;2023-02-11T00:57:40;38.28;;;26.58;;
13981;SDS011;7065;50.880;5.502;2023-02-11T01:00:06;36.83;;;25.60;;
13981;SDS011;7065;50.880;5.502;2023-02-11T01:02:32;38.17;;;26.08;;
13981;SDS011;7065;50.880;5.502;2023-02-11T01:04:58;36.67;;;25.08;;
13981;SDS011;7065;50.880;5.502;2023-02-11T01:07:25;38.67;;;25.80;;
13981;SDS011;7065;50.880;5.502;2023-02-11T01:09:51;41.25;;;26.98;;
13981;SDS011;7065;50.880;5.502;2023-02-11T01:12:17;37.25;;;25.27;;
13981;SDS011;7065;50.880;5.502;2023-02-11T01:14:42;36.63;;;24.75;;
13981;SDS011;7065;50.880;5.502;2023-02-11T01:17:08;33.20;;;24.58;;
13981;SDS011;7065;50.880;5.502;2023-02-11T01:19:35;38.25;;;27.17;;
13981;SDS011;7065;50.880;5.502;2023-02-11T01:22:01;36.10;;;25.08;;
13981;SDS011;7065;50.880;5.502;2023-02-11T01:24:27;33.90;;;24.13;;
13981;SDS011;7065;50.880;5.502;2023-02-11T01:26:53;39.17;;;25.10;;
13981;SDS011;7065;50.880;5.502;2023-02-11T01:29:19;35.45;;;24.67;;
13981;SDS011;7065;50.880;5.502;2023-02-11T01:31:45;32.85;;;23.42;;
13981;SDS011;7065;50.880;5.502;2023-02-11T01:34:11;40.25;;;24.67;;
13981;SDS011;7065;50.880;5.502;2023-02-11T01:36:37;33.85;;;23.63;;
13981;SDS011;7065;50.880;5.502;2023-02-11T01:39:04;35.97;;;24.25;;
13981;SDS011;7065;50.880;5.502;2023-02-11T01:41:30;39.00;;;25.17;;
13981;SDS011;7065;50.880;5.502;2023-02-11T01:43:56;37.72;;;25.25;;
13981;SDS011;7065;50.880;5.502;2023-02-11T01:46:25;32.95;;;22.45;;
13981;SDS011;7065;50.880;5.502;2023-02-11T01:49:11;35.70;;;22.65;;
13981;SDS011;7065;50.880;5.502;2023-02-11T01:51:43;33.17;;;23.08;;
13981;SDS011;7065;50.880;5.502;2023-02-11T01:54:16;35.08;;;21.42;;
13981;SDS011;7065;50.880;5.502;2023-02-11T01:57:03;31.02;;;21.52;;
13981;SDS011;7065;50.880;5.502;2023-02-11T02:02:48;30.70;;;19.95;;
13981;SDS011;7065;50.880;5.502;2023-02-11T02:10:34;31.33;;;19.17;;
13981;SDS011;7065;50.880;5.502;2023-02-11T02:13:05;34.22;;;20.05;;
13981;SDS011;7065;50.880;5.502;2023-02-11T02:15:32;33.67;;;20.17;;
13981;SDS011;7065;50.880;5.502;2023-02-11T02:28:25;30.55;;;18.58;;
13981;SDS011;7065;50.880;5.502;2023-02-11T02:31:22;30.35;;;18.90;;
13981;SDS011;7065;50.880;5.502;2023-02-11T02:33:59;34.10;;;20.35;;
13981;SDS011;7065;50.880;5.502;2023-02-11T02:39:14;28.35;;;18.65;;
13981;SDS011;7065;50.880;5.502;2023-02-11T02:41:46;27.20;;;18.40;;
13981;SDS011;7065;50.880;5.502;2023-02-11T02:44:14;27.88;;;18.25;;
13981;SDS011;7065;50.880;5.502;2023-02-11T02:46:40;30.55;;;18.67;;
13981;SDS011;7065;50.880;5.502;2023-02-11T02:49:09;26.83;;;17.85;;
13981;SDS011;7065;50.880;5.502;2023-02-11T03:05:22;29.38;;;17.45;;
13981;SDS011;7065;50.880;5.502;2023-02-11T03:07:57;30.35;;;17.77;;
13981;SDS011;7065;50.880;5.502;2023-02-11T03:10:33;25.98;;;16.02;;
13981;SDS011;7065;50.880;5.502;2023-02-11T03:13:05;25.00;;;16.58;;
13981;SDS011;7065;50.880;5.502;2023-02-11T03:15:33;25.13;;;15.98;;
13981;SDS011;7065;50.880;5.502;2023-02-11T03:18:06;30.02;;;16.70;;
13981;SDS011;7065;50.880;5.502;2023-02-11T03:20:35;28.67;;;16.50;;
13981;SDS011;7065;50.880;5.502;2023-02-11T03:23:05;24.02;;;15.57;;
13981;SDS011;7065;50.880;5.502;2023-02-11T03:25:36;24.30;;;15.57;;
13981;SDS011;7065;50.880;5.502;2023-02-11T03:28:17;25.85;;;14.80;;
13981;SDS011;7065;50.880;5.502;2023-02-11T03:31:08;26.08;;;14.02;;
13981;SDS011;7065;50.880;5.502;2023-02-11T03:33:56;22.25;;;15.05;;
13981;SDS011;7065;50.880;5.502;2023-02-11T03:39:23;22.70;;;14.65;;
13981;SDS011;7065;50.880;5.502;2023-02-11T03:41:54;25.52;;;15.27;;
13981;SDS011;7065;50.880;5.502;2023-02-11T03:44:24;23.05;;;15.02;;
13981;SDS011;7065;50.880;5.502;2023-02-11T03:46:55;25.92;;;14.95;;
13981;SDS011;7065;50.880;5.502;2023-02-11T03:49:21;22.50;;;15.48;;
13981;SDS011;7065;50.880;5.502;2023-02-11T03:51:51;27.13;;;14.52;;
13981;SDS011;7065;50.880;5.502;2023-02-11T03:54:20;26.75;;;15.98;;
13981;SDS011;7065;50.880;5.502;2023-02-11T03:56:52;22.35;;;14.82;;
13981;SDS011;7065;50.880;5.502;2023-02-11T03:59:20;23.42;;;15.32;;
13981;SDS011;7065;50.880;5.502;2023-02-11T04:01:45;23.20;;;14.65;;
13981;SDS011;7065;50.880;5.502;2023-02-11T04:04:11;23.08;;;14.93;;
13981;SDS011;7065;50.880;5.502;2023-02-11T04:06:37;26.17;;;15.20;;
13981;SDS011;7065;50.880;5.502;2023-02-11T04:09:03;23.67;;;16.38;;
13981;SDS011;7065;50.880;5.502;2023-02-11T04:11:29;21.90;;;14.32;;
13981;SDS011;7065;50.880;5.502;2023-02-11T04:13:55;24.38;;;15.30;;
13981;SDS011;7065;50.880;5.502;2023-02-11T04:16:21;26.65;;;16.35;;
13981;SDS011;7065;50.880;5.502;2023-02-11T04:18:47;29.90;;;15.50;;
13981;SDS011;7065;50.880;5.502;2023-02-11T04:21:13;25.15;;;15.02;;
13981;SDS011;7065;50.880;5.502;2023-02-11T04:23:39;26.67;;;16.30;;
13981;SDS011;7065;50.880;5.502;2023-02-11T04:26:04;27.10;;;15.85;;
13981;SDS011;7065;50.880;5.502;2023-02-11T04:28:30;26.45;;;16.30;;
13981;SDS011;7065;50.880;5.502;2023-02-11T04:30:56;25.88;;;14.77;;
13981;SDS011;7065;50.880;5.502;2023-02-11T04:33:22;28.35;;;16.90;;
13981;SDS011;7065;50.880;5.502;2023-02-11T04:35:48;26.40;;;15.90;;
13981;SDS011;7065;50.880;5.502;2023-02-11T04:38:14;27.45;;;16.20;;
13981;SDS011;7065;50.880;5.502;2023-02-11T04:40:40;29.33;;;18.35;;
13981;SDS011;7065;50.880;5.502;2023-02-11T04:43:05;27.75;;;15.50;;
13981;SDS011;7065;50.880;5.502;2023-02-11T04:45:31;27.77;;;17.00;;
13981;SDS011;7065;50.880;5.502;2023-02-11T04:47:57;30.40;;;17.85;;
13981;SDS011;7065;50.880;5.502;2023-02-11T04:50:23;26.70;;;18.20;;
13981;SDS011;7065;50.880;5.502;2023-02-11T04:52:49;29.90;;;18.85;;
13981;SDS011;7065;50.880;5.502;2023-02-11T04:55:15;29.13;;;18.75;;
13981;SDS011;7065;50.880;5.502;2023-02-11T04:57:41;29.27;;;19.15;;
13981;SDS011;7065;50.880;5.502;2023-02-11T05:00:07;32.70;;;18.85;;
13981;SDS011;7065;50.880;5.502;2023-02-11T05:02:34;29.92;;;18.40;;
13981;SDS011;7065;50.880;5.502;2023-02-11T05:05:00;31.65;;;19.95;;
13981;SDS011;7065;50.880;5.502;2023-02-11T05:07:26;29.15;;;18.40;;
13981;SDS011;7065;50.880;5.502;2023-02-11T05:09:52;32.40;;;18.98;;
13981;SDS011;7065;50.880;5.502;2023-02-11T05:12:17;31.40;;;18.85;;
13981;SDS011;7065;50.880;5.502;2023-02-11T05:14:43;29.80;;;18.17;;
13981;SDS011;7065;50.880;5.502;2023-02-11T05:17:09;32.30;;;19.52;;
13981;SDS011;7065;50.880;5.502;2023-02-11T05:19:34;34.05;;;19.88;;
13981;SDS011;7065;50.880;5.502;2023-02-11T05:22:00;28.83;;;18.85;;
13981;SDS011;7065;50.880;5.502;2023-02-11T05:24:26;36.08;;;21.23;;
13981;SDS011;7065;50.880;5.502;2023-02-11T05:26:51;37.25;;;21.10;;
13981;SDS011;7065;50.880;5.502;2023-02-11T05:29:17;31.98;;;19.05;;
13981;SDS011;7065;50.880;5.502;2023-02-11T05:31:44;28.33;;;19.85;;
13981;SDS011;7065;50.880;5.502;2023-02-11T05:34:10;26.58;;;18.65;;
13981;SDS011;7065;50.880;5.502;2023-02-11T05:36:36;36.78;;;20.83;;
13981;SDS011;7065;50.880;5.502;2023-02-11T05:39:01;33.10;;;20.08;;
13981;SDS011;7065;50.880;5.502;2023-02-11T05:41:28;34.60;;;20.38;;
13981;SDS011;7065;50.880;5.502;2023-02-11T05:43:53;35.00;;;20.60;;
13981;SDS011;7065;50.880;5.502;2023-02-11T05:46:19;40.95;;;21.05;;
13981;SDS011;7065;50.880;5.502;2023-02-11T05:48:45;33.70;;;19.88;;
13981;SDS011;7065;50.880;5.502;2023-02-11T05:51:10;31.50;;;20.55;;
13981;SDS011;7065;50.880;5.502;2023-02-11T05:53:36;37.15;;;21.80;;
13981;SDS011;7065;50.880;5.502;2023-02-11T05:56:02;32.72;;;20.92;;
13981;SDS011;7065;50.880;5.502;2023-02-11T05:58:27;38.33;;;22.23;;
13981;SDS011;7065;50.880;5.502;2023-02-11T06:00:53;36.42;;;22.42;;
13981;SDS011;7065;50.880;5.502;2023-02-11T06:03:19;45.22;;;22.95;;
13981;SDS011;7065;50.880;5.502;2023-02-11T06:05:45;35.35;;;21.90;;
13981;SDS011;7065;50.880;5.502;2023-02-11T06:08:11;41.88;;;22.55;;
13981;SDS011;7065;50.880;5.502;2023-02-11T06:10:37;40.85;;;22.90;;
13981;SDS011;7065;50.880;5.502;2023-02-11T06:13:02;40.38;;;24.08;;
13981;SDS011;7065;50.880;5.502;2023-02-11T06:15:29;46.67;;;24.45;;
13981;SDS011;7065;50.880;5.502;2023-02-11T06:17:55;40.78;;;23.10;;
13981;SDS011;7065;50.880;5.502;2023-02-11T06:20:20;40.63;;;23.67;;
13981;SDS011;7065;50.880;5.502;2023-02-11T06:22:47;45.67;;;23.27;;
13981;SDS011;7065;50.880;5.502;2023-02-11T06:25:13;41.92;;;24.08;;
13981;SDS011;7065;50.880;5.502;2023-02-11T06:27:39;40.25;;;24.17;;
13981;SDS011;7065;50.880;5.502;2023-02-11T06:30:05;40.67;;;24.83;;
13981;SDS011;7065;50.880;5.502;2023-02-11T06:32:32;43.72;;;24.83;;
13981;SDS011;7065;50.880;5.502;2023-02-11T06:34:57;44.30;;;25.33;;
13981;SDS011;7065;50.880;5.502;2023-02-11T06:37:23;45.05;;;24.73;;
13981;SDS011;7065;50.880;5.502;2023-02-11T06:39:49;43.53;;;25.90;;
13981;SDS011;7065;50.880;5.502;2023-02-11T06:42:14;47.00;;;24.13;;
13981;SDS011;7065;50.880;5.502;2023-02-11T06:44:40;47.20;;;26.38;;
13981;SDS011;7065;50.880;5.502;2023-02-11T06:47:06;47.38;;;26.40;;
13981;SDS011;7065;50.880;5.502;2023-02-11T06:49:32;42.70;;;23.90;;
13981;SDS011;7065;50.880;5.502;2023-02-11T06:51:57;47.55;;;24.98;;
13981;SDS011;7065;50.880;5.502;2023-02-11T06:54:23;46.00;;;25.98;;
13981;SDS011;7065;50.880;5.502;2023-02-11T06:56:49;45.17;;;26.05;;
13981;SDS011;7065;50.880;5.502;2023-02-11T06:59:15;44.08;;;25.60;;
13981;SDS011;7065;50.880;5.502;2023-02-11T07:01:43;43.05;;;26.77;;
13981;SDS011;7065;50.880;5.502;2023-02-11T07:04:09;47.83;;;26.30;;
13981;SDS011;7065;50.880;5.502;2023-02-11T07:06:35;44.67;;;26.08;;
13981;SDS011;7065;50.880;5.502;2023-02-11T07:09:02;49.88;;;25.92;;
13981;SDS011;7065;50.880;5.502;2023-02-11T07:11:29;45.60;;;25.63;;
13981;SDS011;7065;50.880;5.502;2023-02-11T07:13:58;49.15;;;25.55;;
13981;SDS011;7065;50.880;5.502;2023-02-11T07:16:26;46.70;;;27.58;;
13981;SDS011;7065;50.880;5.502;2023-02-11T07:18:51;47.30;;;26.27;;
13981;SDS011;7065;50.880;5.502;2023-02-11T07:21:19;48.83;;;26.58;;
13981;SDS011;7065;50.880;5.502;2023-02-11T07:23:45;59.10;;;28.13;;
13981;SDS011;7065;50.880;5.502;2023-02-11T07:26:13;51.85;;;27.27;;
13981;SDS011;7065;50.880;5.502;2023-02-11T07:28:40;48.50;;;28.38;;
13981;SDS011;7065;50.880;5.502;2023-02-11T07:31:07;49.50;;;26.73;;
13981;SDS011;7065;50.880;5.502;2023-02-11T07:33:35;49.92;;;27.30;;
13981;SDS011;7065;50.880;5.502;2023-02-11T07:36:02;48.58;;;26.60;;
13981;SDS011;7065;50.880;5.502;2023-02-11T07:38:30;49.50;;;27.17;;
13981;SDS011;7065;50.880;5.502;2023-02-11T07:40:59;56.28;;;29.85;;
13981;SDS011;7065;50.880;5.502;2023-02-11T07:43:33;56.40;;;28.90;;
13981;SDS011;7065;50.880;5.502;2023-02-11T07:46:03;51.33;;;28.65;;
13981;SDS011;7065;50.880;5.502;2023-02-11T07:48:30;48.85;;;28.52;;
13981;SDS011;7065;50.880;5.502;2023-02-11T07:51:03;54.88;;;29.00;;
13981;SDS011;7065;50.880;5.502;2023-02-11T07:53:30;57.72;;;29.23;;
13981;SDS011;7065;50.880;5.502;2023-02-11T07:55:55;49.78;;;28.55;;
13981;SDS011;7065;50.880;5.502;2023-02-11T07:58:21;57.92;;;29.27;;
13981;SDS011;7065;50.880;5.502;2023-02-11T08:00:47;58.67;;;28.83;;
13981;SDS011;7065;50.880;5.502;2023-02-11T08:03:12;52.97;;;29.67;;
13981;SDS011;7065;50.880;5.502;2023-02-11T08:05:38;63.50;;;29.98;;
13981;SDS011;7065;50.880;5.502;2023-02-11T08:08:04;59.17;;;30.48;;
13981;SDS011;7065;50.880;5.502;2023-02-11T08:10:29;60.95;;;31.02;;
13981;SDS011;7065;50.880;5.502;2023-02-11T08:12:55;53.83;;;28.55;;
13981;SDS011;7065;50.880;5.502;2023-02-11T08:15:21;51.30;;;29.27;;
13981;SDS011;7065;50.880;5.502;2023-02-11T08:17:47;57.92;;;30.13;;
13981;SDS011;7065;50.880;5.502;2023-02-11T08:20:13;54.60;;;29.10;;
13981;SDS011;7065;50.880;5.502;2023-02-11T08:22:40;54.03;;;30.67;;
13981;SDS011;7065;50.880;5.502;2023-02-11T08:25:06;64.38;;;31.98;;
13981;SDS011;7065;50.880;5.502;2023-02-11T08:27:31;56.05;;;31.75;;
13981;SDS011;7065;50.880;5.502;2023-02-11T08:29:58;61.53;;;33.25;;
13981;SDS011;7065;50.880;5.502;2023-02-11T08:32:24;58.35;;;30.27;;
13981;SDS011;7065;50.880;5.502;2023-02-11T08:34:51;64.25;;;32.55;;
13981;SDS011;7065;50.880;5.502;2023-02-11T08:37:17;60.33;;;31.98;;
13981;SDS011;7065;50.880;5.502;2023-02-11T08:39:43;60.08;;;32.25;;
13981;SDS011;7065;50.880;5.502;2023-02-11T08:42:11;62.45;;;31.65;;
13981;SDS011;7065;50.880;5.502;2023-02-11T08:44:39;58.85;;;31.70;;
13981;SDS011;7065;50.880;5.502;2023-02-11T08:47:05;62.85;;;32.90;;
13981;SDS011;7065;50.880;5.502;2023-02-11T08:49:31;65.22;;;33.35;;
13981;SDS011;7065;50.880;5.502;2023-02-11T08:51:58;59.50;;;32.97;;
13981;SDS011;7065;50.880;5.502;2023-02-11T08:54:28;64.18;;;32.50;;
13981;SDS011;7065;50.880;5.502;2023-02-11T08:56:54;59.45;;;32.55;;
13981;SDS011;7065;50.880;5.502;2023-02-11T08:59:20;63.85;;;33.30;;
13981;SDS011;7065;50.880;5.502;2023-02-11T09:01:46;65.47;;;33.85;;
13981;SDS011;7065;50.880;5.502;2023-02-11T09:04:12;64.90;;;32.35;;
13981;SDS011;7065;50.880;5.502;2023-02-11T09:06:38;65.57;;;34.15;;
13981;SDS011;7065;50.880;5.502;2023-02-11T09:09:04;64.82;;;34.53;;
13981;SDS011;7065;50.880;5.502;2023-02-11T09:11:31;61.97;;;34.60;;
13981;SDS011;7065;50.880;5.502;2023-02-11T09:13:59;64.50;;;34.80;;
13981;SDS011;7065;50.880;5.502;2023-02-11T09:16:27;72.25;;;36.33;;
13981;SDS011;7065;50.880;5.502;2023-02-11T09:18:57;69.18;;;35.10;;
13981;SDS011;7065;50.880;5.502;2023-02-11T09:21:24;66.18;;;33.92;;
13981;SDS011;7065;50.880;5.502;2023-02-11T09:23:50;69.13;;;34.95;;
13981;SDS011;7065;50.880;5.502;2023-02-11T09:26:20;66.50;;;34.22;;
13981;SDS011;7065;50.880;5.502;2023-02-11T09:28:48;69.30;;;34.53;;
13981;SDS011;7065;50.880;5.502;2023-02-11T09:31:16;66.25;;;34.88;;
13981;SDS011;7065;50.880;5.502;2023-02-11T09:33:45;70.10;;;36.28;;
13981;SDS011;7065;50.880;5.502;2023-02-11T09:36:22;66.07;;;35.47;;
13981;SDS011;7065;50.880;5.502;2023-02-11T09:38:50;71.78;;;36.15;;
13981;SDS011;7065;50.880;5.502;2023-02-11T09:43:45;71.22;;;35.83;;
13981;SDS011;7065;50.880;5.502;2023-02-11T09:46:14;72.40;;;35.92;;
13981;SDS011;7065;50.880;5.502;2023-02-11T09:48:42;68.30;;;35.67;;
13981;SDS011;7065;50.880;5.502;2023-02-11T09:51:20;65.68;;;34.78;;
13981;SDS011;7065;50.880;5.502;2023-02-11T09:53:57;70.13;;;35.67;;
13981;SDS011;7065;50.880;5.502;2023-02-11T09:56:27;64.30;;;35.15;;
13981;SDS011;7065;50.880;5.502;2023-02-11T09:58:53;71.30;;;37.00;;
13981;SDS011;7065;50.880;5.502;2023-02-11T10:09:03;68.97;;;36.67;;
13981;SDS011;7065;50.880;5.502;2023-02-11T10:23:00;68.68;;;36.97;;
13981;SDS011;7065;50.880;5.502;2023-02-11T10:25:37;64.50;;;35.17;;
13981;SDS011;7065;50.880;5.502;2023-02-11T10:28:13;69.40;;;35.67;;
13981;SDS011;7065;50.880;5.502;2023-02-11T10:30:45;68.15;;;34.90;;
13981;SDS011;7065;50.880;5.502;2023-02-11T10:33:28;71.55;;;35.92;;
13981;SDS011;7065;50.880;5.502;2023-02-11T10:36:00;62.75;;;36.00;;
13981;SDS011;7065;50.880;5.502;2023-02-11T10:38:26;70.18;;;36.45;;
13981;SDS011;7065;50.880;5.502;2023-02-11T10:40:52;70.80;;;36.22;;
13981;SDS011;7065;50.880;5.502;2023-02-11T10:43:18;61.40;;;33.30;;
13981;SDS011;7065;50.880;5.502;2023-02-11T10:45:51;66.32;;;35.92;;
13981;SDS011;7065;50.880;5.502;2023-02-11T10:48:34;69.20;;;37.20;;
13981;SDS011;7065;50.880;5.502;2023-02-11T10:51:20;71.68;;;35.65;;
13981;SDS011;7065;50.880;5.502;2023-02-11T10:54:05;71.88;;;35.35;;
13981;SDS011;7065;50.880;5.502;2023-02-11T10:56:47;72.07;;;34.85;;
13981;SDS011;7065;50.880;5.502;2023-02-11T11:01:55;69.28;;;35.55;;
13981;SDS011;7065;50.880;5.502;2023-02-11T11:06:56;67.85;;;35.65;;
13981;SDS011;7065;50.880;5.502;2023-02-11T11:09:44;68.05;;;35.50;;
13981;SDS011;7065;50.880;5.502;2023-02-11T11:17:40;73.93;;;36.55;;
13981;SDS011;7065;50.880;5.502;2023-02-11T11:20:25;72.20;;;35.88;;
13981;SDS011;7065;50.880;5.502;2023-02-11T11:23:06;69.75;;;35.22;;
13981;SDS011;7065;50.880;5.502;2023-02-11T11:26:00;74.55;;;37.30;;
13981;SDS011;7065;50.880;5.502;2023-02-11T11:28:31;67.45;;;35.67;;
13981;SDS011;7065;50.880;5.502;2023-02-11T11:31:27;71.15;;;35.65;;
13981;SDS011;7065;50.880;5.502;2023-02-11T11:34:17;79.05;;;37.10;;
13981;SDS011;7065;50.880;5.502;2023-02-11T11:36:45;70.85;;;35.33;;
13981;SDS011;7065;50.880;5.502;2023-02-11T11:39:16;72.00;;;35.53;;
13981;SDS011;7065;50.880;5.502;2023-02-11T11:41:53;69.72;;;36.42;;
13981;SDS011;7065;50.880;5.502;2023-02-11T11:44:27;70.35;;;36.97;;
13981;SDS011;7065;50.880;5.502;2023-02-11T11:47:29;69.03;;;36.40;;
13981;SDS011;7065;50.880;5.502;2023-02-11T11:50:04;73.05;;;36.58;;
13981;SDS011;7065;50.880;5.502;2023-02-11T11:52:44;70.47;;;35.65;;
13981;SDS011;7065;50.880;5.502;2023-02-11T11:58:09;70.93;;;35.55;;
13981;SDS011;7065;50.880;5.502;2023-02-11T12:14:34;71.75;;;36.72;;
13981;SDS011;7065;50.880;5.502;2023-02-11T12:22:25;70.55;;;36.97;;
13981;SDS011;7065;50.880;5.502;2023-02-11T12:25:21;63.88;;;34.75;;
13981;SDS011;7065;50.880;5.502;2023-02-11T12:28:06;69.55;;;36.22;;
13981;SDS011;7065;50.880;5.502;2023-02-11T12:30:57;69.00;;;35.30;;
13981;SDS011;7065;50.880;5.502;2023-02-11T12:39:25;65.43;;;34.85;;
13981;SDS011;7065;50.880;5.502;2023-02-11T12:42:14;66.10;;;35.50;;
13981;SDS011;7065;50.880;5.502;2023-02-11T12:55:59;66.10;;;34.72;;
13981;SDS011;7065;50.880;5.502;2023-02-11T12:58:47;66.78;;;35.13;;
13981;SDS011;7065;50.880;5.502;2023-02-11T13:01:26;68.40;;;35.88;;
13981;SDS011;7065;50.880;5.502;2023-02-11T13:06:45;68.85;;;36.50;;
13981;SDS011;7065;50.880;5.502;2023-02-11T13:09:17;69.15;;;36.35;;
13981;SDS011;7065;50.880;5.502;2023-02-11T13:11:48;60.88;;;33.88;;
13981;SDS011;7065;50.880;5.502;2023-02-11T13:14:26;58.92;;;34.15;;
13981;SDS011;7065;50.880;5.502;2023-02-11T13:17:03;67.32;;;36.47;;
13981;SDS011;7065;50.880;5.502;2023-02-11T13:19:49;63.63;;;35.90;;
13981;SDS011;7065;50.880;5.502;2023-02-11T13:22:21;70.03;;;35.70;;
13981;SDS011;7065;50.880;5.502;2023-02-11T13:24:55;68.40;;;35.17;;
13981;SDS011;7065;50.880;5.502;2023-02-11T13:33:49;67.90;;;34.63;;
13981;SDS011;7065;50.880;5.502;2023-02-11T13:38:26;63.65;;;33.25;;
13981;SDS011;7065;50.880;5.502;2023-02-11T13:43:29;69.28;;;34.95;;
13981;SDS011;7065;50.880;5.502;2023-02-11T13:46:04;71.63;;;35.90;;
13981;SDS011;7065;50.880;5.502;2023-02-11T13:48:35;71.30;;;35.72;;
13981;SDS011;7065;50.880;5.502;2023-02-11T13:51:04;70.43;;;34.67;;
13981;SDS011;7065;50.880;5.502;2023-02-11T13:53:44;64.78;;;35.28;;
13981;SDS011;7065;50.880;5.502;2023-02-11T13:56:28;72.15;;;36.75;;
13981;SDS011;7065;50.880;5.502;2023-02-11T13:58:54;64.10;;;34.40;;
13981;SDS011;7065;50.880;5.502;2023-02-11T14:04:33;65.82;;;33.60;;
13981;SDS011;7065;50.880;5.502;2023-02-11T14:07:31;62.50;;;33.75;;
13981;SDS011;7065;50.880;5.502;2023-02-11T14:15:44;64.25;;;34.15;;
13981;SDS011;7065;50.880;5.502;2023-02-11T14:19:11;66.07;;;33.63;;
13981;SDS011;7065;50.880;5.502;2023-02-11T14:23:43;63.25;;;34.20;;
13981;SDS011;7065;50.880;5.502;2023-02-11T14:28:45;60.42;;;33.15;;
13981;SDS011;7065;50.880;5.502;2023-02-11T14:31:41;64.88;;;34.30;;
13981;SDS011;7065;50.880;5.502;2023-02-11T14:42:27;62.22;;;34.53;;
13981;SDS011;7065;50.880;5.502;2023-02-11T14:44:55;60.40;;;35.05;;
13981;SDS011;7065;50.880;5.502;2023-02-11T14:47:31;61.90;;;35.65;;
13981;SDS011;7065;50.880;5.502;2023-02-11T14:50:18;60.53;;;33.95;;
13981;SDS011;7065;50.880;5.502;2023-02-11T14:52:52;62.28;;;33.78;;
13981;SDS011;7065;50.880;5.502;2023-02-11T14:58:03;58.20;;;33.67;;
13981;SDS011;7065;50.880;5.502;2023-02-11T15:00:30;62.05;;;35.45;;
13981;SDS011;7065;50.880;5.502;2023-02-11T15:02:56;60.58;;;34.08;;
13981;SDS011;7065;50.880;5.502;2023-02-11T15:05:23;62.85;;;33.92;;
13981;SDS011;7065;50.880;5.502;2023-02-11T15:07:58;68.28;;;35.13;;
13981;SDS011;7065;50.880;5.502;2023-02-11T15:10:36;66.72;;;36.13;;
13981;SDS011;7065;50.880;5.502;2023-02-11T15:13:06;63.78;;;34.83;;
13981;SDS011;7065;50.880;5.502;2023-02-11T15:15:33;63.13;;;36.13;;
13981;SDS011;7065;50.880;5.502;2023-02-11T15:18:01;62.95;;;32.90;;
13981;SDS011;7065;50.880;5.502;2023-02-11T15:20:29;61.90;;;34.08;;
13981;SDS011;7065;50.880;5.502;2023-02-11T15:22:58;65.13;;;34.55;;
13981;SDS011;7065;50.880;5.502;2023-02-11T15:25:29;61.72;;;35.40;;
13981;SDS011;7065;50.880;5.502;2023-02-11T15:27:55;59.45;;;33.58;;
13981;SDS011;7065;50.880;5.502;2023-02-11T15:30:23;63.13;;;34.45;;
13981;SDS011;7065;50.880;5.502;2023-02-11T15:32:53;63.10;;;34.90;;
13981;SDS011;7065;50.880;5.502;2023-02-11T15:35:27;65.10;;;35.70;;
13981;SDS011;7065;50.880;5.502;2023-02-11T15:37:59;64.78;;;35.33;;
13981;SDS011;7065;50.880;5.502;2023-02-11T15:40:26;65.78;;;35.00;;
13981;SDS011;7065;50.880;5.502;2023-02-11T15:48:20;59.50;;;35.33;;
13981;SDS011;7065;50.880;5.502;2023-02-11T15:50:51;63.20;;;34.97;;
13981;SDS011;7065;50.880;5.502;2023-02-11T15:53:41;61.80;;;34.00;;
13981;SDS011;7065;50.880;5.502;2023-02-11T15:56:12;64.57;;;35.97;;
13981;SDS011;7065;50.880;5.502;2023-02-11T15:58:45;58.63;;;33.72;;
13981;SDS011;7065;50.880;5.502;2023-02-11T16:01:13;58.50;;;34.35;;
13981;SDS011;7065;50.880;5.502;2023-02-11T16:03:39;64.65;;;34.75;;
13981;SDS011;7065;50.880;5.502;2023-02-11T16:08:54;58.90;;;32.78;;
13981;SDS011;7065;50.880;5.502;2023-02-11T16:11:23;61.45;;;34.33;;
13981;SDS011;7065;50.880;5.502;2023-02-11T16:13:58;60.00;;;34.75;;
13981;SDS011;7065;50.880;5.502;2023-02-11T16:16:26;65.00;;;35.60;;
13981;SDS011;7065;50.880;5.502;2023-02-11T16:18:55;61.15;;;34.53;;
13981;SDS011;7065;50.880;5.502;2023-02-11T16:21:28;59.03;;;34.92;;
13981;SDS011;7065;50.880;5.502;2023-02-11T16:23:59;61.60;;;35.78;;
13981;SDS011;7065;50.880;5.502;2023-02-11T16:26:33;63.78;;;35.67;;
13981;SDS011;7065;50.880;5.502;2023-02-11T16:29:10;58.85;;;34.38;;
13981;SDS011;7065;50.880;5.502;2023-02-11T16:31:42;64.82;;;36.13;;
13981;SDS011;7065;50.880;5.502;2023-02-11T16:34:13;60.53;;;35.20;;
13981;SDS011;7065;50.880;5.502;2023-02-11T16:36:44;62.08;;;34.30;;
13981;SDS011;7065;50.880;5.502;2023-02-11T16:39:10;61.33;;;33.97;;
13981;SDS011;7065;50.880;5.502;2023-02-11T16:41:36;60.58;;;35.28;;
13981;SDS011;7065;50.880;5.502;2023-02-11T16:44:02;57.85;;;34.63;;
13981;SDS011;7065;50.880;5.502;2023-02-11T16:46:27;59.03;;;33.63;;
13981;SDS011;7065;50.880;5.502;2023-02-11T16:48:55;62.95;;;33.83;;
13981;SDS011;7065;50.880;5.502;2023-02-11T16:51:22;57.95;;;33.38;;
13981;SDS011;7065;50.880;5.502;2023-02-11T16:53:49;59.05;;;34.42;;
13981;SDS011;7065;50.880;5.502;2023-02-11T16:56:15;61.70;;;34.35;;
13981;SDS011;7065;50.880;5.502;2023-02-11T16:58:42;64.18;;;34.53;;
13981;SDS011;7065;50.880;5.502;2023-02-11T17:01:09;62.83;;;34.17;;
13981;SDS011;7065;50.880;5.502;2023-02-11T17:03:35;59.97;;;35.75;;
13981;SDS011;7065;50.880;5.502;2023-02-11T17:06:07;61.05;;;35.20;;
13981;SDS011;7065;50.880;5.502;2023-02-11T17:08:35;59.03;;;34.25;;
13981;SDS011;7065;50.880;5.502;2023-02-11T17:11:01;57.75;;;33.40;;
13981;SDS011;7065;50.880;5.502;2023-02-11T17:13:27;59.72;;;34.33;;
13981;SDS011;7065;50.880;5.502;2023-02-11T17:15:53;57.53;;;33.20;;
13981;SDS011;7065;50.880;5.502;2023-02-11T17:18:19;60.08;;;32.85;;
13981;SDS011;7065;50.880;5.502;2023-02-11T17:20:44;56.47;;;33.60;;
13981;SDS011;7065;50.880;5.502;2023-02-11T17:23:10;58.88;;;34.33;;
13981;SDS011;7065;50.880;5.502;2023-02-11T17:25:36;58.05;;;33.13;;